createdAt,value
2019-03-19T00:00:33.494Z,2.53
2019-03-19T00:05:29.352Z,3.13
2019-03-19T00:10:25.298Z,2.50
2019-03-19T00:15:21.122Z,2.67
2019-03-19T00:20:50.564Z,2.70
2019-03-19T00:26:26.193Z,2.70
2019-03-19T00:31:35.160Z,2.73
2019-03-19T00:36:30.322Z,3.13
2019-03-19T00:42:08.390Z,3.13
2019-03-19T00:47:13.081Z,3.07
2019-03-19T00:52:20.673Z,4.63
2019-03-19T00:57:20.945Z,5.30
2019-03-19T01:03:18.415Z,5.20
2019-03-19T01:08:49.097Z,5.10
2019-03-19T01:14:34.167Z,4.27
2019-03-19T01:19:28.821Z,3.70
2019-03-19T01:24:27.930Z,3.97
2019-03-19T01:29:56.145Z,4.17
2019-03-19T01:35:31.433Z,4.47
2019-03-19T01:40:38.364Z,4.33
2019-03-19T01:45:45.969Z,5.03
2019-03-19T01:51:03.232Z,5.60
2019-03-19T01:56:05.385Z,6.17
2019-03-19T02:01:07.911Z,6.20
2019-03-19T02:06:14.504Z,6.47
2019-03-19T02:11:25.952Z,10.20
2019-03-19T02:16:21.807Z,10.63
2019-03-19T02:21:51.253Z,10.27
2019-03-19T02:27:08.720Z,9.23
2019-03-19T02:32:12.591Z,10.13
2019-03-19T02:37:12.491Z,10.17
2019-03-19T02:42:08.766Z,10.13
2019-03-19T02:47:05.168Z,8.93
2019-03-19T02:52:04.881Z,10.27
2019-03-19T02:57:01.061Z,9.80
2019-03-19T03:01:57.227Z,8.77
2019-03-19T03:06:53.426Z,9.00
2019-03-19T03:11:52.308Z,8.80
2019-03-19T03:16:48.581Z,9.13
2019-03-19T03:21:44.689Z,9.30
2019-03-19T03:26:47.339Z,8.37
2019-03-19T03:31:41.435Z,9.30
2019-03-19T03:36:37.898Z,8.77
2019-03-19T03:41:34.090Z,8.40
2019-03-19T03:46:30.613Z,8.37
2019-03-19T03:51:26.802Z,7.93
2019-03-19T03:56:22.952Z,9.10
2019-03-19T04:01:19.151Z,8.53
2019-03-19T04:06:15.296Z,8.57
2019-03-19T04:11:11.448Z,9.17
2019-03-19T04:16:07.680Z,7.93
2019-03-19T04:21:03.928Z,9.17
2019-03-19T04:26:00.153Z,8.43
2019-03-19T04:30:56.317Z,8.33
2019-03-19T04:35:52.473Z,9.80
2019-03-19T04:40:49.750Z,7.73
2019-03-19T04:45:45.989Z,7.93
2019-03-19T04:50:42.245Z,7.60
2019-03-19T04:55:40.661Z,8.40
2019-03-19T05:00:37.009Z,8.27
2019-03-19T05:05:33.158Z,8.03
2019-03-19T05:10:29.389Z,8.47
2019-03-19T05:15:25.545Z,8.53
2019-03-19T05:20:21.833Z,8.80
2019-03-19T05:25:17.849Z,8.57
2019-03-19T05:30:14.289Z,8.10
2019-03-19T05:35:11.397Z,9.13
2019-03-19T05:40:08.203Z,7.60
2019-03-19T05:45:04.824Z,8.23
2019-03-19T05:50:01.006Z,9.07
2019-03-19T05:54:57.092Z,8.60
2019-03-19T05:59:53.265Z,8.03
2019-03-19T06:04:49.409Z,6.77
2019-03-19T06:09:45.841Z,6.37
2019-03-19T06:14:42.214Z,6.63
2019-03-19T06:19:38.637Z,7.23
2019-03-19T06:24:35.797Z,7.27
2019-03-19T06:29:32.496Z,6.43
2019-03-19T06:34:28.762Z,5.90
2019-03-19T06:39:27.828Z,6.43
2019-03-19T06:44:23.864Z,7.13
2019-03-19T06:49:20.094Z,6.80
2019-03-19T06:54:16.193Z,7.70
2019-03-19T06:59:12.386Z,6.97
2019-03-19T07:04:08.541Z,8.27
2019-03-19T07:09:06.748Z,8.00
2019-03-19T07:14:05.020Z,7.93
2019-03-19T07:19:01.389Z,7.07
2019-03-19T07:23:57.581Z,8.00
2019-03-19T07:28:53.849Z,8.13
2019-03-19T07:33:50.351Z,7.93
2019-03-19T07:38:46.532Z,8.47
2019-03-19T07:43:45.947Z,9.00
2019-03-19T07:48:42.085Z,8.57
2019-03-19T07:53:40.859Z,8.57
2019-03-19T07:58:45.069Z,9.43
2019-03-19T08:03:34.957Z,9.80
2019-03-19T08:08:31.045Z,9.40
2019-03-19T08:13:27.293Z,9.97
2019-03-19T08:18:23.475Z,9.60
2019-03-19T08:23:19.537Z,9.60
2019-03-19T08:28:15.910Z,10.07
2019-03-19T08:33:12.272Z,9.53
2019-03-19T08:38:08.493Z,10.40
2019-03-19T08:43:05.261Z,11.43
2019-03-19T08:48:01.863Z,9.03
2019-03-19T08:52:58.121Z,10.13
2019-03-19T08:57:54.385Z,11.37
2019-03-19T09:02:50.597Z,10.57
2019-03-19T09:07:46.894Z,10.23
2019-03-19T09:12:43.179Z,10.70
2019-03-19T09:17:41.940Z,11.90
2019-03-19T09:22:38.260Z,11.43
2019-03-19T09:27:37.666Z,11.33
2019-03-19T09:32:34.152Z,11.83
2019-03-19T09:37:33.242Z,11.93
2019-03-19T09:42:29.409Z,10.43
2019-03-19T09:47:25.578Z,11.57
2019-03-19T09:52:21.825Z,10.93
2019-03-19T09:57:18.041Z,11.73
2019-03-19T10:02:14.364Z,11.57
2019-03-19T10:07:10.426Z,11.87
2019-03-19T10:12:08.252Z,12.23
2019-03-19T10:17:04.714Z,10.57
2019-03-19T10:22:00.935Z,11.57
2019-03-19T10:26:57.405Z,11.37
2019-03-19T10:31:56.700Z,10.50
2019-03-19T10:36:53.159Z,11.77
2019-03-19T10:41:49.414Z,9.33
2019-03-19T10:46:45.618Z,10.60
2019-03-19T10:51:42.051Z,10.10
2019-03-19T10:56:39.029Z,8.37
2019-03-19T11:01:35.542Z,8.83
2019-03-19T11:06:31.894Z,8.97
2019-03-19T11:11:27.999Z,8.13
2019-03-19T11:16:24.372Z,7.40
2019-03-19T11:21:20.806Z,6.60
2019-03-19T11:26:17.048Z,4.83
2019-03-19T11:31:13.648Z,4.87
2019-03-19T11:36:11.925Z,6.47
2019-03-19T11:41:08.394Z,6.40
2019-03-19T11:46:05.142Z,6.17
2019-03-19T11:51:01.437Z,13.67
2019-03-19T11:55:57.966Z,5.30
2019-03-19T12:00:57.350Z,5.83
2019-03-19T12:05:53.464Z,8.10
2019-03-19T12:10:49.504Z,6.00
2019-03-19T12:15:45.716Z,6.20
2019-03-19T12:20:41.901Z,5.07
2019-03-19T12:25:38.174Z,5.67
2019-03-19T12:30:34.729Z,4.20
2019-03-19T12:35:31.080Z,5.90
2019-03-19T12:40:36.381Z,5.60
2019-03-19T12:45:25.426Z,4.03
2019-03-19T12:50:21.721Z,5.07
2019-03-19T12:55:17.898Z,8.27
2019-03-19T13:00:20.050Z,4.40
2019-03-19T13:05:16.393Z,5.43
2019-03-19T13:10:15.491Z,3.00
2019-03-19T13:15:12.778Z,1.97
2019-03-19T13:20:10.423Z,2.30
2019-03-19T13:25:08.037Z,1.30
2019-03-19T13:30:04.200Z,1.80
2019-03-19T13:35:00.397Z,1.40
2019-03-19T13:39:59.556Z,1.13
2019-03-19T13:44:55.771Z,1.27
2019-03-19T13:49:51.847Z,1.10
2019-03-19T13:54:48.157Z,0.70
2019-03-19T13:59:44.427Z,0.83
2019-03-19T14:04:40.549Z,0.93
2019-03-19T14:09:36.593Z,1.30
2019-03-19T14:14:32.798Z,1.10
2019-03-19T14:19:28.917Z,1.40
2019-03-19T14:24:24.949Z,2.53
2019-03-19T14:29:21.013Z,1.30
2019-03-19T14:34:17.122Z,1.17
2019-03-19T14:39:13.358Z,1.03
2019-03-19T14:44:09.404Z,1.00
2019-03-19T14:49:07.899Z,1.10
2019-03-19T14:54:04.037Z,1.10
2019-03-19T14:59:02.924Z,1.47
2019-03-19T15:03:59.107Z,3.37
2019-03-19T15:08:55.408Z,1.50
2019-03-19T15:13:51.523Z,1.47
2019-03-19T15:18:48.071Z,1.40
2019-03-19T15:23:44.265Z,1.47
2019-03-19T15:28:40.348Z,0.83
2019-03-19T15:33:36.732Z,0.97
2019-03-19T15:38:33.050Z,1.60
2019-03-19T15:43:29.285Z,1.40
2019-03-19T15:48:25.552Z,1.20
2019-03-19T15:53:22.134Z,1.10
2019-03-19T15:58:18.734Z,1.50
2019-03-19T16:03:14.877Z,1.40
2019-03-19T16:08:11.011Z,1.40
2019-03-19T16:13:07.242Z,1.50
2019-03-19T16:18:04.568Z,1.10
2019-03-19T16:23:00.792Z,1.43
2019-03-19T16:27:57.026Z,1.80
2019-03-19T16:32:54.364Z,1.50
2019-03-19T16:37:50.593Z,1.60
2019-03-19T16:42:46.826Z,1.20
2019-03-19T16:47:42.978Z,1.50
2019-03-19T16:52:39.260Z,1.20
2019-03-19T16:57:35.587Z,1.60
2019-03-19T17:02:32.024Z,1.73
2019-03-19T17:07:28.236Z,1.20
2019-03-19T17:12:24.408Z,1.80
2019-03-19T17:17:20.524Z,1.40
2019-03-19T17:22:16.741Z,1.27
2019-03-19T17:27:12.966Z,1.50
2019-03-19T17:32:13.289Z,2.17
2019-03-19T17:37:07.344Z,1.90
2019-03-19T17:42:04.056Z,1.97
2019-03-19T17:47:00.211Z,1.80
2019-03-19T17:51:56.353Z,2.30
2019-03-19T17:56:52.792Z,1.60
2019-03-19T18:01:49.046Z,1.97
2019-03-19T18:06:45.483Z,2.50
2019-03-19T18:11:41.689Z,2.33
2019-03-19T18:16:38.060Z,2.50
2019-03-19T18:21:34.509Z,2.47
2019-03-19T18:32:35.639Z,2.50
2019-03-19T18:37:38.104Z,2.40
2019-03-19T18:42:34.558Z,2.60
2019-03-19T19:05:36.106Z,2.10
2019-03-19T19:22:31.651Z,2.00
2019-03-19T19:28:30.564Z,2.13
2019-03-19T19:39:34.154Z,2.43
2019-03-19T19:50:34.677Z,2.23
2019-03-19T20:01:39.456Z,2.10
2019-03-19T20:06:37.859Z,2.00
2019-03-19T20:11:34.038Z,2.00
2019-03-19T20:16:36.339Z,1.97
2019-03-19T20:33:35.535Z,1.67
2019-03-19T20:38:35.672Z,1.70
2019-03-19T20:43:36.036Z,2.37
2019-03-19T20:48:45.447Z,1.80
2019-03-19T20:53:41.451Z,2.10
2019-03-19T20:58:43.402Z,1.70
2019-03-19T21:03:36.359Z,1.77
2019-03-19T21:08:35.323Z,1.50
2019-03-19T21:13:45.951Z,2.50
2019-03-19T21:18:52.271Z,2.60
2019-03-19T21:24:00.306Z,2.00
2019-03-19T21:28:56.810Z,2.50
2019-03-19T21:33:59.174Z,2.33
2019-03-19T21:38:57.473Z,2.10
2019-03-19T21:43:59.853Z,2.17
2019-03-19T21:48:57.361Z,2.27
2019-03-19T21:53:56.235Z,2.50
2019-03-19T21:58:52.266Z,2.13
2019-03-19T22:03:49.983Z,2.20
2019-03-19T22:08:48.839Z,2.30
2019-03-19T22:13:48.258Z,2.80
2019-03-19T22:18:49.389Z,2.57
2019-03-19T22:23:50.119Z,2.40
2019-03-19T22:29:00.267Z,2.60
2019-03-19T22:34:02.570Z,2.80
2019-03-19T22:39:01.491Z,2.67
2019-03-19T22:44:08.681Z,2.50
2019-03-19T22:49:10.281Z,2.97
2019-03-19T22:54:10.949Z,3.20
2019-03-19T22:59:08.755Z,3.50
2019-03-19T23:04:09.360Z,3.00
2019-03-19T23:09:53.187Z,2.90
2019-03-19T23:15:06.575Z,3.00
2019-03-19T23:20:09.479Z,2.80
2019-03-19T23:25:08.139Z,3.13
2019-03-19T23:30:27.656Z,2.87
2019-03-19T23:35:48.145Z,2.80
2019-03-19T23:40:58.312Z,2.57
2019-03-19T23:46:23.494Z,3.23
2019-03-19T23:51:32.274Z,3.67
2019-03-19T23:56:45.639Z,3.37
